Time;durP1;ratioP1;P1;durP2;ratioP2;P2;SDS_P1;SDS_P2;PMS_P1;PMS_P2;Temp;Humidity;BMP_temperature;BMP_pressure;BME280_temperature;BME280_humidity;BME280_pressure;Samples;Min_cycle;Max_cycle;Signal;HPM_P1;HPM_P2
2022/08/08 00:01:34;;;;;;;5.33;3.80;;;15.50;17.00;;;15.43;57.33;101783.13;5024868;28;20410;-71
2022/08/08 00:04:34;;;;;;;4.40;3.07;;;15.50;17.50;;;15.47;57.47;101778.09;5023041;28;20845;-71
2022/08/08 00:07:16;;;;;;;4.33;2.80;;;15.40;18.20;;;15.48;57.45;101775.16;5021704;28;20499;-72
2022/08/08 00:10:03;;;;;;;3.50;3.20;;;15.40;18.50;;;15.42;57.46;101780.59;5026081;28;20418;-71
2022/08/08 00:12:42;;;;;;;5.20;2.77;;;15.40;18.50;;;15.23;57.86;101780.44;5023045;28;20446;-73
2022/08/08 00:15:24;;;;;;;2.90;2.40;;;15.30;18.80;;;15.13;58.14;101774.56;5027986;28;20818;-72
2022/08/08 00:18:24;;;;;;;3.60;3.00;;;15.20;19.40;;;14.99;58.46;101772.91;5027331;28;20858;-71
2022/08/08 00:20:58;;;;;;;3.63;2.70;;;15.00;20.00;;;14.90;58.78;101779.59;5007686;28;20423;-72
2022/08/08 00:23:40;;;;;;;3.27;2.37;;;15.00;21.00;;;14.98;58.80;101784.84;5019859;28;20461;-72
2022/08/08 00:26:38;;;;;;;4.87;2.83;;;14.90;21.40;;;15.01;58.77;101778.97;5008620;28;20429;-72
2022/08/08 00:29:16;;;;;;;5.70;2.73;;;15.00;21.80;;;14.96;58.98;101781.47;5024744;28;20514;-72
2022/08/08 00:32:16;;;;;;;3.97;2.60;;;15.00;22.40;;;15.08;58.83;101784.41;5022535;28;20949;-71
2022/08/08 00:35:34;;;;;;;3.70;2.87;;;15.00;23.10;;;15.13;58.73;101781.91;5009875;28;20419;-73
2022/08/08 00:38:37;;;;;;;5.37;3.10;;;15.00;23.50;;;15.04;58.94;101783.16;5027409;28;20409;-72
2022/08/08 00:42:16;;;;;;;3.03;2.73;;;15.00;23.60;;;14.92;59.27;101779.38;5032822;28;20444;-73
2022/08/08 00:46:11;;;;;;;3.20;2.83;;;14.90;23.90;;;14.78;59.58;101782.09;5029064;28;20442;-73
2022/08/08 00:49:42;;;;;;;3.67;3.30;;;14.80;24.80;;;14.64;59.89;101785.84;4932050;29;20974;-72
2022/08/08 00:52:46;;;;;;;5.53;2.80;;;14.70;25.60;;;14.72;60.15;101779.38;5004474;28;20454;-72
2022/08/08 00:56:08;;;;;;;4.97;3.60;;;14.70;26.90;;;14.84;59.82;101782.31;5010790;28;20960;-72
2022/08/08 00:59:54;;;;;;;5.60;2.43;;;14.70;27.00;;;14.98;59.35;101787.56;5006663;28;20494;-73
2022/08/08 01:03:25;;;;;;;2.63;2.43;;;14.90;27.30;;;14.95;59.42;101789.88;4904956;28;20430;-72
2022/08/08 01:07:15;;;;;;;3.27;2.83;;;14.90;27.20;;;14.70;60.19;101786.91;5027999;28;20455;-73
2022/08/08 01:10:40;;;;;;;4.27;3.27;;;14.80;27.50;;;14.78;60.03;101789.44;4915715;29;20427;-72
2022/08/08 01:14:10;;;;;;;5.43;2.47;;;14.80;28.70;;;14.84;59.83;101777.72;4945175;29;20472;-74
2022/08/08 01:17:30;;;;;;;2.90;2.70;;;14.80;28.90;;;14.88;59.90;101776.25;5012803;28;20449;-71
2022/08/08 01:20:44;;;;;;;3.43;2.60;;;14.80;29.70;;;14.77;60.33;101783.16;5029898;28;20422;-72
2022/08/08 01:24:07;;;;;;;3.50;3.20;;;14.80;30.00;;;14.66;60.52;101786.50;5025955;28;20479;-73
2022/08/08 01:27:31;;;;;;;3.53;3.00;;;14.70;30.40;;;14.79;60.35;101777.50;5006139;28;20443;-71
2022/08/08 01:31:00;;;;;;;4.73;3.20;;;14.70;31.70;;;14.78;60.50;101779.38;5001483;28;20457;-72
2022/08/08 01:34:42;;;;;;;3.23;2.93;;;14.70;32.70;;;14.64;60.93;101777.69;4977791;28;20490;-72
2022/08/08 01:38:17;;;;;;;3.80;2.97;;;14.70;33.40;;;14.47;61.51;101783.75;5008666;28;20452;-71
2022/08/08 01:41:05;;;;;;;5.20;2.90;;;14.60;34.40;;;14.44;61.89;101779.53;5011719;28;20865;-71
2022/08/08 01:43:52;;;;;;;4.37;3.53;;;14.50;36.90;;;14.61;61.80;101778.13;5013776;28;20450;-72
2022/08/08 01:46:50;;;;;;;4.27;3.13;;;14.50;39.10;;;14.48;62.02;101779.94;5001454;28;20418;-71
2022/08/08 01:49:46;;;;;;;8.73;4.00;;;14.50;40.10;;;14.55;61.36;101783.53;5022430;28;20430;-72
2022/08/08 01:52:45;;;;;;;4.20;3.50;;;14.50;39.50;;;14.40;61.57;101769.25;5007829;28;20457;-72
2022/08/08 01:55:48;;;;;;;6.63;3.60;;;14.40;38.90;;;14.37;61.66;101767.81;5010738;28;20446;-72
2022/08/08 01:58:49;;;;;;;5.40;3.97;;;14.40;41.10;;;14.47;61.63;101767.41;5020861;28;20487;-71
2022/08/08 02:01:41;;;;;;;4.53;3.30;;;14.40;40.70;;;14.30;61.78;101762.28;5002461;28;20444;-72
2022/08/08 02:04:43;;;;;;;4.40;4.00;;;14.30;41.00;;;14.39;61.63;101768.41;5009628;28;20530;-71
2022/08/08 02:07:29;;;;;;;4.00;3.60;;;14.40;42.00;;;14.25;62.16;101762.06;5005687;28;20422;-72
2022/08/08 02:10:38;;;;;;;2.40;1.90;;;14.30;42.60;;;14.22;62.17;101756.22;5007515;28;20804;-72
2022/08/08 02:13:26;;;;;;;4.03;3.20;;;14.20;43.70;;;14.25;61.99;101763.94;5012601;28;20469;-71
2022/08/08 02:16:29;;;;;;;3.50;3.10;;;14.20;45.10;;;14.30;62.25;101759.56;5006589;28;20502;-72
2022/08/08 02:19:12;;;;;;;3.63;2.50;;;14.20;46.60;;;14.31;61.76;101758.53;4997284;28;20428;-71
2022/08/08 02:25:19;;;;;;;4.70;4.30;;;14.20;46.00;;;14.17;62.33;101759.53;5011487;28;20521;-71
2022/08/08 02:28:01;;;;;;;3.60;3.07;;;14.20;47.40;;;14.25;62.42;101764.78;5006588;28;20946;-72
2022/08/08 02:30:58;;;;;;;4.93;3.50;;;14.20;48.10;;;14.38;61.67;101765.91;5019712;28;20833;-71
2022/08/08 02:33:56;;;;;;;4.37;3.27;;;14.20;48.20;;;14.26;61.69;101763.75;4999537;28;20479;-72
2022/08/08 02:36:55;;;;;;;3.97;3.27;;;14.20;47.20;;;14.21;62.01;101771.69;5011093;28;20436;-72
2022/08/08 02:40:04;;;;;;;4.40;3.20;;;14.20;47.30;;;14.13;62.44;101771.91;5022671;28;20423;-73
2022/08/08 02:43:12;;;;;;;4.77;3.03;;;14.20;48.70;;;14.06;62.77;101773.75;5001745;28;20486;-72
2022/08/08 02:46:32;;;;;;;5.63;3.50;;;14.10;49.90;;;14.09;62.73;101767.88;5025585;28;20465;-73
2022/08/08 02:49:53;;;;;;;3.20;2.87;;;14.00;51.80;;;14.02;63.13;101767.03;5016472;28;20820;-73
2022/08/08 02:53:07;;;;;;;3.80;3.40;;;14.00;54.00;;;13.94;63.54;101773.47;4995889;28;20494;-72
2022/08/08 02:57:11;;;;;;;4.10;3.10;;;13.90;56.40;;;14.03;63.73;101779.59;5030566;28;20441;-72
2022/08/08 03:00:51;;;;;;;4.70;4.00;;;13.90;59.90;;;13.93;63.75;101774.53;5039337;28;20419;-72
2022/08/08 03:04:16;;;;;;;4.63;3.60;;;13.90;60.00;;;13.86;64.04;101779.09;4953291;28;20920;-71
2022/08/08 03:08:12;;;;;;;11.70;3.97;;;13.90;62.40;;;13.75;64.43;101776.09;5019903;28;20455;-71
2022/08/08 03:11:51;;;;;;;3.97;3.43;;;13.80;66.20;;;13.56;65.09;101785.00;4998383;28;20477;-71
2022/08/08 03:14:56;;;;;;;5.23;4.53;;;13.70;70.40;;;13.58;65.53;101781.03;5010901;28;20542;-72
2022/08/08 03:17:53;;;;;;;4.60;3.57;;;13.60;78.10;;;13.97;64.26;101780.41;5021886;28;20433;-72
2022/08/08 03:20:44;;;;;;;3.33;3.03;;;13.70;78.40;;;13.89;64.17;101795.00;5024998;28;20978;-70
2022/08/08 03:23:19;;;;;;;3.80;3.43;;;13.80;74.80;;;13.88;64.08;101792.50;5010144;28;20458;-71
2022/08/08 03:25:51;;;;;;;5.40;4.53;;;13.80;73.50;;;13.85;64.42;101788.28;5031080;28;20475;-72
2022/08/08 03:28:32;;;;;;;6.40;4.70;;;13.80;76.50;;;13.93;64.14;101784.56;5022044;28;20482;-72
2022/08/08 03:33:16;;;;;;;6.50;5.80;;;13.80;75.90;;;13.91;64.12;101797.53;5009525;28;20905;-71
2022/08/08 03:33:56;;;;;;;6.47;5.30;;;13.80;75.30;;;13.80;64.49;101787.22;5015505;28;20451;-71
2022/08/08 03:36:30;;;;;;;6.63;4.53;;;13.80;75.50;;;13.60;65.05;101784.41;5010685;28;20543;-74
2022/08/08 03:39:04;;;;;;;4.50;4.10;;;13.60;77.40;;;13.55;65.25;101786.06;5023424;28;20435;-73
2022/08/08 03:41:45;;;;;;;5.63;3.90;;;13.60;80.60;;;13.58;65.20;101786.47;5009519;28;20455;-72
2022/08/08 03:44:39;;;;;;;5.33;3.60;;;13.60;82.00;;;13.58;65.04;101791.09;5012821;28;20460;-72
2022/08/08 03:47:21;;;;;;;7.33;4.90;;;13.60;83.50;;;13.49;65.48;101788.53;5024758;28;20454;-72
2022/08/08 03:49:54;;;;;;;7.60;4.40;;;13.50;84.50;;;13.53;65.33;101782.69;5023081;28;20480;-72
2022/08/08 03:52:36;;;;;;;5.30;3.80;;;13.50;85.50;;;13.57;65.32;101795.69;5014347;28;20981;-72
2022/08/08 03:55:20;;;;;;;5.27;4.20;;;13.50;86.60;;;13.52;65.65;101798.16;5025595;28;20452;-72
2022/08/08 03:58:16;;;;;;;5.90;3.87;;;13.50;87.30;;;13.53;65.60;101801.72;5028793;28;20494;-71
2022/08/08 04:01:15;;;;;;;4.37;3.90;;;13.50;89.10;;;13.60;65.54;101797.16;5012165;28;20462;-73
2022/08/08 04:03:59;;;;;;;5.53;4.90;;;13.50;89.60;;;13.87;64.61;101802.56;5024971;28;20455;-73
2022/08/08 04:06:39;;;;;;;5.20;4.60;;;13.70;87.70;;;13.78;64.61;101802.91;5015002;28;20655;-72
2022/08/08 04:09:10;;;;;;;7.90;5.60;;;13.70;84.10;;;13.79;64.65;101804.59;5025071;28;20443;-71
2022/08/08 04:11:44;;;;;;;6.40;4.97;;;13.70;84.60;;;13.76;64.79;101805.00;5015845;28;20829;-72
2022/08/08 04:14:35;;;;;;;5.60;4.30;;;13.70;83.90;;;13.81;65.05;101802.50;5008897;28;20611;-71
2022/08/08 04:17:07;;;;;;;7.00;4.67;;;13.70;85.40;;;13.84;64.72;101813.84;5008200;28;20541;-72
2022/08/08 04:19:57;;;;;;;6.07;5.00;;;13.70;85.20;;;13.91;64.40;101819.31;5010115;28;20428;-72
2022/08/08 04:22:27;;;;;;;4.87;4.07;;;13.80;83.60;;;13.91;64.11;101816.59;5028876;28;20468;-72
2022/08/08 04:24:59;;;;;;;5.10;4.57;;;13.80;81.10;;;14.32;63.49;101814.69;5005022;28;20448;-72
2022/08/08 04:27:32;;;;;;;6.10;4.77;;;13.90;80.80;;;15.47;59.29;101814.38;5029151;28;20970;-71
2022/08/08 04:30:21;;;;;;;9.77;4.60;;;14.40;69.70;;;15.26;59.57;101819.22;5020967;28;20444;-72
2022/08/08 04:32:54;;;;;;;6.00;4.37;;;14.70;59.10;;;14.99;60.29;101813.78;5020626;28;20460;-70
2022/08/08 04:35:28;;;;;;;6.33;5.17;;;14.70;57.60;;;15.07;60.39;101816.28;4999051;28;20427;-71
2022/08/08 04:38:08;;;;;;;7.97;4.47;;;14.70;56.90;;;16.98;55.24;101823.00;5015061;28;20993;-71
2022/08/08 04:40:44;;;;;;;13.60;4.83;;;15.20;52.60;;;17.34;53.65;101828.59;5023756;28;20455;-71
2022/08/08 04:43:24;;;;;;;7.30;4.17;;;15.80;44.00;;;18.40;51.30;101829.09;5025190;28;21049;-71
2022/08/08 04:46:17;;;;;;;5.33;3.60;;;16.40;38.20;;;19.91;47.55;101831.31;5038029;22;20461;-71
2022/08/08 04:48:49;;;;;;;9.10;5.50;;;17.20;31.10;;;20.86;45.50;101826.09;5047571;28;20470;-71
2022/08/08 04:51:18;;;;;;;15.67;11.17;;;17.80;26.70;;;21.48;43.76;101828.81;5048598;28;20475;-72
2022/08/08 04:54:07;;;;;;;8.20;4.53;;;18.50;23.00;;;22.12;41.94;101829.19;5037114;28;20434;-71
2022/08/08 04:56:57;;;;;;;8.53;4.50;;;19.10;18.00;;;22.44;41.45;101833.72;5052555;28;20477;-71
2022/08/08 04:59:27;;;;;;;9.57;4.13;;;19.80;15.10;;;22.60;41.26;101836.66;5047914;28;20437;-72
2022/08/08 05:01:59;;;;;;;8.03;3.90;;;19.80;13.60;;;22.94;40.46;101833.47;5065982;28;20518;-72
2022/08/08 05:04:29;;;;;;;3.43;2.93;;;20.00;12.20;;;23.17;39.90;101836.97;5037152;28;20915;-72
2022/08/08 05:06:59;;;;;;;5.30;4.80;;;20.00;11.90;;;23.47;39.43;101831.72;5049301;28;20469;-71
2022/08/08 05:09:33;;;;;;;5.80;3.93;;;20.00;10.80;;;23.65;39.06;101834.03;5025071;28;20524;-71
2022/08/08 05:12:06;;;;;;;5.80;4.37;;;20.10;10.50;;;24.04;38.37;101836.47;5050393;28;20980;-73
2022/08/08 05:14:40;;;;;;;5.70;4.40;;;20.50;9.50;;;24.07;38.24;101835.91;5034052;28;20805;-71
2022/08/08 05:17:09;;;;;;;5.80;5.20;;;20.60;8.90;;;24.58;37.13;101834.22;5034696;28;20421;-72
2022/08/08 05:19:39;;;;;;;6.20;4.70;;;21.30;7.30;;;24.57;37.54;101833.38;5031664;28;20887;-72
2022/08/08 05:22:31;;;;;;;6.10;3.70;;;21.10;6.50;;;25.04;36.66;101835.13;5045415;28;20439;-71
2022/08/08 05:25:02;;;;;;;5.40;3.73;;;21.50;6.10;;;25.19;36.05;101837.91;5047157;28;20511;-71
2022/08/08 05:27:32;;;;;;;5.40;4.33;;;21.80;4.90;;;24.27;37.63;101835.19;5043842;28;20535;-71
2022/08/08 05:30:18;;;;;;;4.43;3.70;;;21.30;4.80;;;22.03;41.47;101837.91;5050576;28;20453;-71
2022/08/08 05:32:58;;;;;;;4.37;3.93;;;20.50;6.30;;;19.97;45.95;101844.09;5050936;28;20487;-71
2022/08/08 05:35:34;;;;;;;11.53;5.87;;;19.40;8.80;;;19.23;48.34;101834.63;5066316;28;20447;-71
2022/08/08 05:38:11;;;;;;;5.67;3.93;;;18.90;10.90;;;18.56;50.02;101844.09;5060847;28;20498;-70
2022/08/08 05:41:06;;;;;;;6.67;4.50;;;18.30;12.30;;;18.45;49.99;101842.94;5039743;28;20443;-71
2022/08/08 05:43:40;;;;;;;5.80;4.17;;;18.20;13.00;;;18.42;50.38;101848.91;5037942;28;20600;-71
2022/08/08 05:46:31;;;;;;;7.43;4.47;;;18.10;13.90;;;18.41;50.26;101844.47;5040872;28;20472;-71
2022/08/08 05:49:04;;;;;;;10.70;5.23;;;18.00;14.20;;;18.38;50.78;101844.97;5037785;28;20502;-71
2022/08/08 05:51:41;;;;;;;6.40;4.23;;;18.00;14.80;;;18.53;50.35;101855.50;5035696;28;20443;-71
2022/08/08 05:54:23;;;;;;;4.97;3.60;;;18.10;14.70;;;18.53;49.69;101856.38;5054134;28;20437;-71
2022/08/08 05:57:16;;;;;;;7.30;5.07;;;18.10;14.10;;;18.67;49.38;101855.13;5035629;28;20414;-71
2022/08/08 06:00:11;;;;;;;4.77;4.10;;;18.20;13.80;;;18.75;48.90;101844.88;5030469;28;20508;-71
2022/08/08 06:03:11;;;;;;;7.00;3.90;;;18.30;13.20;;;18.77;48.12;101851.81;5027551;28;20481;-71
2022/08/08 06:05:58;;;;;;;5.87;4.50;;;18.40;11.90;;;18.98;47.82;101851.28;5029601;28;20410;-71
2022/08/08 06:08:38;;;;;;;3.57;3.20;;;18.50;12.10;;;19.03;47.70;101853.31;5026348;28;20466;-72
2022/08/08 06:11:21;;;;;;;7.97;4.63;;;18.60;11.90;;;19.13;47.75;101858.22;5028294;28;20418;-72
2022/08/08 06:13:56;;;;;;;6.10;3.50;;;18.70;11.60;;;19.20;47.42;101859.81;5027396;28;20437;-72
2022/08/08 06:16:26;;;;;;;10.00;4.07;;;18.70;11.10;;;19.38;46.89;101862.44;5047290;28;20420;-73
2022/08/08 06:19:10;;;;;;;5.30;4.43;;;18.90;10.80;;;19.43;47.11;101859.00;5030626;28;20425;-72
2022/08/08 06:21:48;;;;;;;7.63;3.50;;;19.00;11.00;;;19.62;46.42;101857.00;5031040;28;20510;-73
2022/08/08 06:24:37;;;;;;;6.17;4.80;;;19.20;10.30;;;19.72;46.56;101860.81;5025287;28;20779;-73
2022/08/08 06:27:21;;;;;;;14.47;8.90;;;19.40;10.20;;;19.94;46.04;101861.06;5028547;28;20774;-72
2022/08/08 06:30:04;;;;;;;5.27;4.20;;;19.50;9.90;;;20.05;45.67;101860.19;5027872;28;20428;-73
2022/08/08 06:32:50;;;;;;;5.97;4.00;;;19.60;9.40;;;20.22;45.33;101857.53;5028061;28;20538;-72
2022/08/08 06:35:25;;;;;;;9.50;4.40;;;19.80;9.10;;;20.32;45.15;101864.13;5029672;28;20462;-72
2022/08/08 06:38:21;;;;;;;7.00;4.70;;;19.90;8.90;;;20.60;44.20;101868.78;5026376;28;20439;-72
2022/08/08 06:41:07;;;;;;;9.17;5.00;;;20.10;7.70;;;20.69;44.24;101863.72;5041224;28;20418;-72
2022/08/08 06:43:47;;;;;;;5.00;4.60;;;20.20;7.80;;;20.76;44.32;101861.69;5047333;28;20446;-72
2022/08/08 06:46:30;;;;;;;4.93;3.50;;;20.30;7.50;;;20.78;44.11;101856.75;5024290;28;20456;-73
2022/08/08 06:49:01;;;;;;;6.90;4.20;;;20.50;7.20;;;20.85;43.85;101868.44;5031874;28;20445;-72
2022/08/08 06:51:36;;;;;;;5.77;3.70;;;20.50;6.40;;;21.05;43.21;101868.81;5022117;28;20441;-72
2022/08/08 06:54:26;;;;;;;4.33;3.50;;;20.70;6.20;;;21.31;42.10;101872.03;5028945;28;20522;-73
2022/08/08 06:56:56;;;;;;;5.17;3.87;;;20.90;4.90;;;21.36;41.88;101874.88;5050444;28;20443;-72
2022/08/08 06:59:25;;;;;;;4.87;2.90;;;21.10;4.30;;;21.49;41.38;101869.03;5053704;28;20447;-72
2022/08/08 07:02:05;;;;;;;4.70;3.47;;;21.20;4.00;;;21.70;40.88;101876.53;5037939;28;20421;-72
2022/08/08 07:05:05;;;;;;;7.50;3.40;;;21.30;3.40;;;21.71;40.70;101875.44;5036562;28;20450;-72
2022/08/08 07:08:00;;;;;;;4.43;4.03;;;21.40;2.60;;;21.73;41.39;101876.03;5051427;28;20516;-71
2022/08/08 07:10:40;;;;;;;6.60;3.50;;;21.50;3.00;;;21.83;41.26;101875.34;5044015;28;20413;-71
2022/08/08 07:13:20;;;;;;;5.50;4.90;;;21.60;2.80;;;21.91;41.23;101883.16;5047940;28;20557;-72
2022/08/08 07:16:04;;;;;;;7.77;3.93;;;21.60;2.60;;;22.18;40.66;101878.59;5028648;28;20451;-72
2022/08/08 07:19:05;;;;;;;5.37;3.87;;;21.80;2.40;;;22.19;41.00;101874.78;5025199;28;20439;-71
2022/08/08 07:21:54;;;;;;;9.00;3.13;;;22.00;2.10;;;22.41;39.76;101883.06;5022501;28;20877;-71
2022/08/08 07:24:43;;;;;;;5.57;3.67;;;22.10;1.40;;;22.51;39.91;101886.75;5027465;28;20561;-72
2022/08/08 07:27:21;;;;;;;10.20;3.17;;;22.30;1.00;;;22.60;38.82;101887.16;5036988;28;20475;-71
2022/08/08 07:30:06;;;;;;;5.03;3.40;;;22.30;1.00;;;22.74;38.84;101888.44;5048307;28;20562;-71
2022/08/08 07:32:48;;;;;;;4.90;3.50;;;22.40;1.00;;;22.75;38.42;101883.75;5028292;28;20926;-71
2022/08/08 07:35:19;;;;;;;4.80;3.10;;;22.40;1.00;;;22.66;38.33;101886.09;5032176;28;20558;-72
2022/08/08 07:37:54;;;;;;;7.00;3.10;;;22.50;1.00;;;22.83;38.61;101886.88;5032969;28;20493;-72
2022/08/08 07:40:50;;;;;;;6.03;3.37;;;22.50;1.00;;;22.83;38.08;101892.41;5027004;28;20454;-72
2022/08/08 07:43:24;;;;;;;5.70;2.97;;;22.60;1.00;;;22.95;38.00;101895.84;5032218;28;20429;-71
2022/08/08 07:46:06;;;;;;;2.97;2.40;;;22.70;1.00;;;22.99;38.03;101898.09;5029566;28;20451;-71
2022/08/08 07:48:59;;;;;;;8.23;3.63;;;22.80;1.00;;;23.20;38.10;101895.25;5030853;28;20471;-71
2022/08/08 07:51:31;;;;;;;4.60;3.33;;;22.90;1.00;;;23.37;37.55;101892.38;5031155;28;20742;-71
2022/08/08 07:54:32;;;;;;;6.07;3.00;;;23.10;1.00;;;23.50;37.14;101889.19;5028666;28;20466;-71
2022/08/08 07:57:23;;;;;;;3.60;2.40;;;23.20;1.00;;;23.25;37.28;101902.75;5032574;28;20932;-72
2022/08/08 08:00:04;;;;;;;7.70;2.50;;;23.20;1.00;;;23.38;37.04;101905.09;5034991;28;20460;-72
2022/08/08 08:03:11;;;;;;;3.70;2.53;;;23.20;1.00;;;23.39;37.13;101899.28;5031680;28;20475;-72
2022/08/08 08:05:52;;;;;;;4.40;3.30;;;23.20;1.00;;;23.64;36.91;101909.75;5030950;28;20455;-73
2022/08/08 08:08:33;;;;;;;4.50;3.00;;;23.30;1.00;;;23.58;37.06;101905.25;5033698;28;20441;-72
2022/08/08 08:11:08;;;;;;;5.33;2.97;;;23.40;1.00;;;23.87;36.68;101904.94;5028319;28;20429;-72
2022/08/08 08:13:49;;;;;;;2.90;2.53;;;23.50;1.00;;;23.76;36.22;101902.09;5046378;28;20535;-72
2022/08/08 08:16:42;;;;;;;3.27;2.50;;;23.60;1.00;;;23.73;36.61;101908.16;5032845;28;20549;-72
2022/08/08 08:19:26;;;;;;;3.30;2.60;;;23.50;1.00;;;23.90;37.17;101902.47;5031735;28;20538;-72
2022/08/08 08:22:16;;;;;;;2.67;2.30;;;23.60;1.00;;;23.71;35.05;101899.31;5030915;28;20814;-72
2022/08/08 08:25:04;;;;;;;3.90;2.23;;;23.60;1.00;;;24.12;34.99;101902.31;5029743;28;20439;-72
2022/08/08 08:27:37;;;;;;;3.73;2.40;;;23.80;1.00;;;23.99;33.95;101905.56;5029112;28;20446;-71
2022/08/08 08:30:16;;;;;;;3.63;2.47;;;23.80;1.00;;;23.91;33.80;101903.31;5028047;28;20446;-71
2022/08/08 08:32:46;;;;;;;4.30;3.20;;;23.70;1.00;;;24.07;33.61;101907.81;5045188;28;20459;-72
2022/08/08 08:35:22;;;;;;;3.30;3.00;;;23.80;1.00;;;24.45;33.63;101903.88;5031341;28;20514;-72
2022/08/08 08:38:11;;;;;;;3.13;2.13;;;24.00;1.00;;;24.52;33.54;101905.31;5030798;28;20969;-72
2022/08/08 08:40:49;;;;;;;2.87;2.60;;;24.20;1.00;;;24.40;34.65;101901.91;5041137;28;20446;-74
2022/08/08 08:43:21;;;;;;;10.17;2.67;;;24.20;1.00;;;24.34;34.50;101908.56;5044450;28;20991;-72
2022/08/08 08:46:01;;;;;;;3.87;3.33;;;24.10;1.00;;;24.79;33.86;101909.81;5028901;28;20652;-72
2022/08/08 08:48:35;;;;;;;4.23;2.50;;;24.30;1.00;;;24.76;33.82;101904.81;5049376;28;20596;-72
2022/08/08 08:51:17;;;;;;;2.83;2.37;;;24.40;1.00;;;24.86;33.21;101913.16;5029375;28;20732;-71
2022/08/08 08:53:53;;;;;;;2.27;1.63;;;24.50;1.00;;;24.89;32.88;101907.09;5027524;28;20517;-72
2022/08/08 08:56:38;;;;;;;4.10;2.90;;;24.60;1.00;;;24.77;33.47;101900.97;5029921;28;20465;-73
2022/08/08 08:59:17;;;;;;;3.20;2.27;;;24.60;1.00;;;24.80;32.52;101905.94;5029798;28;20964;-72
2022/08/08 09:02:20;;;;;;;3.13;2.50;;;24.60;1.00;;;24.63;32.37;101907.03;5035410;28;20953;-72
2022/08/08 09:04:59;;;;;;;3.10;2.20;;;24.50;1.00;;;24.75;32.19;101901.22;5029455;28;20508;-72
2022/08/08 09:07:33;;;;;;;2.70;1.93;;;24.50;1.00;;;24.80;32.26;101903.16;5045237;28;20469;-72
2022/08/08 09:10:14;;;;;;;3.10;2.20;;;24.50;1.00;;;25.09;32.01;101905.22;5030513;28;20451;-73
2022/08/08 09:12:50;;;;;;;4.33;2.00;;;24.70;1.00;;;25.29;31.87;101893.31;5026702;28;20520;-73
2022/08/08 09:15:21;;;;;;;2.73;2.10;;;24.90;1.00;;;25.21;31.36;101909.66;5043615;28;20442;-73
2022/08/08 09:18:16;;;;;;;2.63;2.10;;;24.90;1.00;;;24.92;32.29;101907.41;5047188;28;20439;-71
2022/08/08 09:20:47;;;;;;;4.43;2.10;;;24.70;1.00;;;25.14;31.83;101901.63;5033768;28;20457;-72
2022/08/08 09:23:37;;;;;;;3.63;2.07;;;24.80;1.00;;;25.27;31.44;101898.28;5023191;28;20478;-72
2022/08/08 09:26:20;;;;;;;2.27;2.03;;;24.90;1.00;;;25.14;31.25;101904.38;5031117;28;20451;-72
2022/08/08 09:28:52;;;;;;;4.80;1.83;;;24.80;1.00;;;25.26;31.33;101904.97;5032751;28;20493;-72
2022/08/08 09:31:48;;;;;;;3.00;2.13;;;24.90;1.00;;;25.15;31.43;101896.91;5028363;28;20448;-71
2022/08/08 09:34:43;;;;;;;3.37;2.77;;;25.00;1.00;;;24.91;31.86;101899.38;5029454;28;20790;-72
2022/08/08 09:37:27;;;;;;;3.00;2.00;;;24.80;1.00;;;24.74;32.12;101885.72;5022249;28;20448;-72
2022/08/08 09:40:21;;;;;;;3.30;2.47;;;24.60;1.00;;;24.64;32.34;101886.50;5043839;28;20794;-72
2022/08/08 09:43:15;;;;;;;3.37;2.10;;;24.50;1.00;;;25.04;31.72;101888.59;5048887;28;20469;-73
2022/08/08 09:46:01;;;;;;;3.10;2.57;;;24.60;1.00;;;25.42;31.64;101891.91;5047505;28;20957;-73
2022/08/08 09:48:37;;;;;;;2.63;2.10;;;25.00;1.00;;;25.39;31.23;101886.94;5043780;28;20471;-72
2022/08/08 09:51:19;;;;;;;3.33;2.67;;;25.10;1.00;;;25.33;31.24;101894.44;5057703;28;20431;-72
2022/08/08 09:53:57;;;;;;;3.60;2.20;;;25.00;1.00;;;25.72;31.08;101885.56;5066143;28;20426;-72
2022/08/08 09:56:47;;;;;;;3.50;2.33;;;25.20;1.00;;;26.22;30.32;101892.97;5061426;28;20447;-71
2022/08/08 09:59:26;;;;;;;4.03;2.83;;;25.60;1.00;;;26.40;30.15;101886.78;5069184;28;20398;-72
2022/08/08 10:02:23;;;;;;;3.73;3.00;;;25.80;1.00;;;26.65;29.29;101897.78;5067967;28;20499;-73
2022/08/08 10:05:04;;;;;;;3.50;2.40;;;26.10;1.00;;;26.78;29.49;101894.34;5067279;28;20494;-72
2022/08/08 10:07:58;;;;;;;3.10;2.30;;;26.30;1.00;;;26.85;29.18;101888.50;5063716;28;20445;-72
2022/08/08 10:10:31;;;;;;;3.23;2.90;;;26.40;1.00;;;26.77;29.25;101880.78;5064565;28;20570;-72
2022/08/08 10:13:01;;;;;;;3.27;2.50;;;26.30;1.00;;;26.85;29.57;101887.66;5068845;28;20447;-72
2022/08/08 10:15:47;;;;;;;2.30;1.93;;;26.30;1.00;;;27.32;28.85;101875.94;5066316;28;20951;-72
2022/08/08 10:18:32;;;;;;;3.30;2.67;;;26.60;1.00;;;27.37;28.55;101873.97;5038968;28;20435;-71
2022/08/08 10:21:06;;;;;;;2.30;1.87;;;27.00;1.00;;;27.17;28.56;101883.28;5049645;28;20508;-71
2022/08/08 10:23:53;;;;;;;2.73;2.33;;;27.00;1.00;;;27.50;28.68;101875.25;5043644;28;20451;-71
2022/08/08 10:26:31;;;;;;;3.27;2.23;;;27.00;1.00;;;27.82;28.34;101869.13;5046538;28;20461;-70
2022/08/08 10:29:38;;;;;;;3.10;2.50;;;27.30;1.00;;;27.81;28.43;101873.84;5047186;28;20961;-71
2022/08/08 10:32:34;;;;;;;5.03;3.47;;;27.30;1.00;;;28.15;28.18;101875.72;5044298;28;20425;-72
2022/08/08 10:35:12;;;;;;;2.67;2.07;;;27.70;1.00;;;28.41;27.60;101866.78;5046409;28;20768;-72
2022/08/08 10:38:04;;;;;;;5.00;2.83;;;27.90;1.00;;;28.38;27.74;101872.09;5047033;28;20500;-71
2022/08/08 10:40:39;;;;;;;4.93;2.73;;;27.90;1.00;;;27.98;27.72;101868.66;5045015;28;20443;-72
2022/08/08 10:43:10;;;;;;;4.00;2.23;;;27.60;1.00;;;27.35;28.58;101864.28;5044087;28;20561;-72
2022/08/08 10:45:48;;;;;;;2.63;2.43;;;27.30;1.00;;;27.58;28.25;101867.13;5055797;22;20559;-71
2022/08/08 10:48:33;;;;;;;2.73;2.30;;;27.20;1.00;;;27.79;27.99;101864.97;5010239;28;20488;-70
2022/08/08 10:51:23;;;;;;;3.50;2.43;;;27.30;1.00;;;27.57;28.08;101867.41;5009643;28;20532;-72
2022/08/08 10:53:55;;;;;;;2.77;2.47;;;27.20;1.00;;;27.92;27.54;101864.28;5009674;28;20448;-69
2022/08/08 10:56:34;;;;;;;4.50;2.73;;;27.40;1.00;;;27.91;26.97;101857.06;5007595;28;20874;-71
2022/08/08 10:59:08;;;;;;;3.50;2.20;;;27.40;1.00;;;28.23;27.73;101859.19;4991956;28;20446;-70
2022/08/08 11:01:38;;;;;;;4.00;2.00;;;27.60;1.00;;;28.44;26.95;101854.22;5055424;22;20526;-71
2022/08/08 11:04:09;;;;;;;2.87;2.43;;;27.90;1.00;;;27.87;28.08;101855.16;5050758;28;20470;-72
2022/08/08 11:06:39;;;;;;;3.93;2.70;;;27.70;1.00;;;28.08;28.05;101846.28;5051285;28;20445;-73
2022/08/08 11:09:15;;;;;;;3.50;2.27;;;27.70;1.00;;;28.06;28.17;101848.53;5049501;28;20493;-73
2022/08/08 11:11:53;;;;;;;3.07;2.33;;;27.70;1.00;;;27.73;27.49;101852.25;5049547;28;20440;-72
2022/08/08 11:14:56;;;;;;;2.60;2.33;;;27.60;1.00;;;27.59;28.21;101849.31;5047354;28;20533;-73
2022/08/08 11:17:29;;;;;;;4.23;2.10;;;27.40;1.00;;;27.04;29.16;101858.94;5048195;28;20930;-73
2022/08/08 11:20:20;;;;;;;2.67;2.23;;;26.90;1.00;;;26.80;29.28;101864.38;5049230;28;20473;-73
2022/08/08 11:22:57;;;;;;;3.97;2.60;;;26.80;1.00;;;26.34;29.98;101863.78;5045988;28;20940;-73
2022/08/08 11:25:30;;;;;;;5.53;2.80;;;26.40;1.00;;;26.19;30.11;101861.03;5044354;28;20434;-72
2022/08/08 11:28:26;;;;;;;3.40;2.93;;;26.10;1.00;;;26.77;29.66;101856.59;5048580;28;20439;-72
2022/08/08 11:31:00;;;;;;;4.47;2.53;;;26.30;1.00;;;26.86;28.67;101856.88;5046987;28;20463;-72
2022/08/08 11:33:35;;;;;;;7.23;2.47;;;26.40;1.00;;;26.76;28.74;101854.97;5049726;28;20461;-72
2022/08/08 11:36:24;;;;;;;3.13;2.60;;;26.40;1.00;;;26.55;29.26;101856.19;5048067;28;20439;-72
2022/08/08 11:38:58;;;;;;;4.63;2.90;;;26.20;1.00;;;26.72;29.30;101858.59;5046797;28;20432;-73
2022/08/08 11:41:29;;;;;;;3.57;2.17;;;26.40;1.00;;;26.88;28.97;101851.84;5050197;28;20442;-73
2022/08/08 11:44:04;;;;;;;4.27;3.07;;;26.40;1.00;;;26.54;29.19;101848.97;5049893;28;20481;-73
2022/08/08 11:46:34;;;;;;;3.60;2.50;;;26.30;1.00;;;26.37;29.74;101849.34;5045836;28;20439;-74